createdAt,value
2022-07-29T00:00:59.558Z,16.81
2022-07-29T00:03:26.390Z,16.84
2022-07-29T00:05:54.106Z,16.86
2022-07-29T00:08:21.100Z,16.73
2022-07-29T00:10:48.104Z,16.68
2022-07-29T00:13:14.824Z,16.63
2022-07-29T00:15:41.666Z,16.66
2022-07-29T00:18:08.346Z,16.68
2022-07-29T00:20:35.018Z,16.73
2022-07-29T00:23:01.799Z,16.71
2022-07-29T00:25:28.456Z,16.69
2022-07-29T00:27:55.129Z,16.64
2022-07-29T00:30:21.809Z,16.62
2022-07-29T00:32:48.499Z,16.34
2022-07-29T00:35:33.784Z,16.30
2022-07-29T00:38:00.599Z,16.30
2022-07-29T00:40:29.063Z,16.21
2022-07-29T00:42:55.829Z,16.37
2022-07-29T00:45:23.309Z,16.37
2022-07-29T00:47:50.427Z,16.39
2022-07-29T00:50:20.425Z,16.37
2022-07-29T00:52:50.903Z,16.26
2022-07-29T00:55:18.515Z,16.20
2022-07-29T00:57:45.824Z,16.10
2022-07-29T01:00:19.977Z,16.13
2022-07-29T01:02:51.313Z,16.02
2022-07-29T01:05:22.404Z,15.94
2022-07-29T01:07:52.203Z,15.96
2022-07-29T01:10:20.702Z,15.86
2022-07-29T01:12:50.208Z,15.81
2022-07-29T01:15:17.229Z,15.88
2022-07-29T01:18:08.162Z,15.86
2022-07-29T01:21:02.231Z,15.81
2022-07-29T01:24:14.201Z,15.74
2022-07-29T01:26:40.997Z,15.86
2022-07-29T01:29:17.425Z,15.83
2022-07-29T01:32:03.495Z,15.71
2022-07-29T01:34:55.911Z,15.35
2022-07-29T01:37:29.799Z,15.43
2022-07-29T01:39:58.603Z,15.50
2022-07-29T01:42:39.438Z,15.72
2022-07-29T01:45:22.109Z,15.86
2022-07-29T01:48:21.041Z,15.82
2022-07-29T01:51:17.165Z,15.78
2022-07-29T01:53:56.744Z,15.68
2022-07-29T01:56:25.732Z,15.77
2022-07-29T01:58:56.902Z,15.73
2022-07-29T02:01:28.355Z,15.73
2022-07-29T02:04:00.540Z,15.69
2022-07-29T02:06:33.573Z,15.61
2022-07-29T02:09:01.531Z,15.44
2022-07-29T02:11:28.576Z,15.38
2022-07-29T02:13:58.482Z,15.46
2022-07-29T02:16:29.988Z,15.43
2022-07-29T02:19:00.822Z,15.34
2022-07-29T02:21:29.112Z,15.32
2022-07-29T02:23:59.109Z,15.30
2022-07-29T02:26:27.747Z,15.18
2022-07-29T02:28:57.471Z,15.28
2022-07-29T02:31:27.500Z,15.30
2022-07-29T02:33:55.869Z,15.26
2022-07-29T02:36:24.724Z,15.22
2022-07-29T02:38:52.628Z,15.03
2022-07-29T02:41:30.807Z,14.99
2022-07-29T02:44:06.450Z,15.05
2022-07-29T02:46:39.658Z,15.08
2022-07-29T02:49:37.308Z,15.05
2022-07-29T02:52:09.987Z,15.06
2022-07-29T02:54:47.126Z,15.04
2022-07-29T02:57:29.909Z,15.00
2022-07-29T03:00:00.058Z,14.80
2022-07-29T03:02:29.144Z,15.06
2022-07-29T03:05:01.085Z,14.94
2022-07-29T03:07:28.834Z,14.81
2022-07-29T03:09:55.909Z,14.71
2022-07-29T03:12:23.524Z,14.67
2022-07-29T03:14:50.677Z,14.80
2022-07-29T03:17:17.633Z,14.88
2022-07-29T03:19:44.680Z,14.88
2022-07-29T03:22:11.777Z,14.83
2022-07-29T03:24:39.218Z,14.80
2022-07-29T03:27:06.563Z,14.90
2022-07-29T03:29:34.655Z,14.85
2022-07-29T03:32:04.261Z,14.86
2022-07-29T03:34:32.764Z,14.93
2022-07-29T03:36:59.518Z,14.79
2022-07-29T03:39:30.488Z,14.79
2022-07-29T03:42:00.928Z,14.85
2022-07-29T03:44:28.905Z,14.91
2022-07-29T03:46:58.960Z,14.89
2022-07-29T03:49:27.746Z,14.96
2022-07-29T03:51:55.473Z,14.97
2022-07-29T03:54:22.388Z,14.90
2022-07-29T03:56:53.116Z,14.95
2022-07-29T03:59:21.866Z,14.93
2022-07-29T04:01:49.967Z,14.93
2022-07-29T04:04:18.007Z,15.03
2022-07-29T04:06:48.406Z,14.89
2022-07-29T04:09:15.195Z,15.06
2022-07-29T04:12:02.350Z,15.07
2022-07-29T04:14:31.598Z,15.11
2022-07-29T04:16:59.701Z,15.16
2022-07-29T04:19:29.305Z,15.15
2022-07-29T04:21:56.050Z,15.26
2022-07-29T04:24:23.245Z,15.21
2022-07-29T04:26:50.323Z,15.39
2022-07-29T04:29:17.025Z,15.46
2022-07-29T04:31:44.927Z,15.56
2022-07-29T04:34:12.344Z,15.59
2022-07-29T04:36:39.223Z,15.74
2022-07-29T04:39:06.292Z,15.84
2022-07-29T04:41:33.819Z,15.92
2022-07-29T04:44:07.209Z,15.90
2022-07-29T04:46:35.916Z,16.02
2022-07-29T04:49:04.212Z,15.98
2022-07-29T04:51:33.361Z,16.08
2022-07-29T04:54:00.021Z,16.22
2022-07-29T04:56:26.760Z,16.35
2022-07-29T04:58:56.210Z,18.35
2022-07-29T05:01:25.562Z,20.35
2022-07-29T05:03:53.983Z,21.89
2022-07-29T05:06:23.769Z,23.19
2022-07-29T05:08:50.441Z,24.18
2022-07-29T05:11:21.021Z,25.09
2022-07-29T05:13:49.388Z,26.12
2022-07-29T05:16:16.130Z,26.91
2022-07-29T05:18:44.194Z,27.65
2022-07-29T05:21:10.915Z,28.17
2022-07-29T05:23:37.583Z,28.55
2022-07-29T05:26:04.269Z,28.90
2022-07-29T05:28:34.970Z,29.54
2022-07-29T05:31:01.943Z,30.30
2022-07-29T05:33:35.835Z,30.59
2022-07-29T05:36:08.984Z,30.77
2022-07-29T05:38:36.688Z,30.98
2022-07-29T05:41:04.024Z,31.02
2022-07-29T05:43:32.260Z,30.79
2022-07-29T05:45:59.455Z,31.20
2022-07-29T05:48:26.425Z,31.23
2022-07-29T05:50:53.264Z,31.27
2022-07-29T05:53:20.698Z,31.39
2022-07-29T05:55:48.788Z,32.28
2022-07-29T05:58:15.997Z,33.27
2022-07-29T06:00:43.024Z,33.91
2022-07-29T06:03:09.749Z,34.31
2022-07-29T06:05:39.078Z,34.71
2022-07-29T06:08:08.344Z,35.69
2022-07-29T06:10:37.919Z,36.13
2022-07-29T06:13:04.718Z,36.49
2022-07-29T06:15:31.648Z,36.33
2022-07-29T06:17:59.940Z,36.86
2022-07-29T06:20:30.866Z,35.12
2022-07-29T06:22:58.409Z,34.09
2022-07-29T06:25:30.206Z,32.38
2022-07-29T06:27:58.403Z,34.07
2022-07-29T06:30:25.123Z,34.56
2022-07-29T06:32:54.890Z,33.97
2022-07-29T06:35:38.919Z,34.88
2022-07-29T06:38:30.459Z,34.34
2022-07-29T06:41:01.156Z,34.17
2022-07-29T06:43:30.008Z,33.74
2022-07-29T06:45:57.235Z,35.17
2022-07-29T06:48:23.944Z,34.74
2022-07-29T06:50:50.761Z,33.95
2022-07-29T06:53:17.434Z,34.10
2022-07-29T06:55:44.235Z,33.50
2022-07-29T06:58:15.211Z,32.74
2022-07-29T07:00:41.861Z,32.68
2022-07-29T07:03:08.823Z,32.61
2022-07-29T07:05:35.469Z,33.44
2022-07-29T07:08:04.094Z,33.47
2022-07-29T07:10:30.852Z,34.32
2022-07-29T07:12:57.988Z,33.40
2022-07-29T07:15:38.851Z,33.78
2022-07-29T07:18:07.633Z,33.53
2022-07-29T07:20:37.529Z,33.89
2022-07-29T07:23:05.640Z,34.09
2022-07-29T07:25:33.691Z,35.06
2022-07-29T07:28:01.313Z,33.72
2022-07-29T07:30:30.432Z,32.89
2022-07-29T07:32:57.109Z,33.31
2022-07-29T07:35:23.749Z,34.25
2022-07-29T07:37:50.396Z,34.76
2022-07-29T07:40:18.658Z,33.14
2022-07-29T07:42:45.688Z,32.31
2022-07-29T07:45:16.230Z,33.06
2022-07-29T07:47:43.647Z,33.29
2022-07-29T07:50:18.664Z,33.75
2022-07-29T07:52:55.991Z,32.54
2022-07-29T07:55:22.740Z,32.42
2022-07-29T07:57:49.465Z,32.65
2022-07-29T08:00:17.283Z,32.59
2022-07-29T08:02:46.151Z,33.40
2022-07-29T08:05:20.379Z,33.81
2022-07-29T08:07:48.381Z,32.31
2022-07-29T08:10:38.174Z,31.78
2022-07-29T08:13:09.643Z,32.17
2022-07-29T08:15:36.409Z,30.86
2022-07-29T08:18:08.420Z,30.83
2022-07-29T08:20:36.728Z,30.33
2022-07-29T08:23:05.420Z,29.18
2022-07-29T08:25:32.171Z,29.26
2022-07-29T08:28:02.371Z,29.14
2022-07-29T08:30:30.714Z,28.70
2022-07-29T08:32:58.021Z,28.43
2022-07-29T08:35:33.392Z,28.52
2022-07-29T08:38:01.927Z,28.38
2022-07-29T08:40:30.488Z,28.24
2022-07-29T08:43:09.444Z,28.36
2022-07-29T08:45:54.037Z,28.63
2022-07-29T08:48:24.029Z,28.62
2022-07-29T08:50:56.709Z,28.22
2022-07-29T08:53:27.500Z,28.45
2022-07-29T08:55:55.785Z,28.66
2022-07-29T08:58:25.706Z,28.59
2022-07-29T09:00:57.869Z,28.24
2022-07-29T09:03:26.248Z,27.91
2022-07-29T09:05:55.990Z,28.12
2022-07-29T09:08:26.606Z,28.14
2022-07-29T09:10:54.454Z,28.72
2022-07-29T09:13:21.125Z,27.97
2022-07-29T09:15:47.833Z,28.23
2022-07-29T09:18:34.160Z,27.89
2022-07-29T09:21:19.730Z,28.23
2022-07-29T09:24:07.817Z,28.58
2022-07-29T09:26:42.506Z,28.79
2022-07-29T09:29:11.388Z,28.70
2022-07-29T09:31:40.474Z,28.90
2022-07-29T09:34:10.798Z,28.57
2022-07-29T09:36:56.772Z,28.80
2022-07-29T09:39:32.915Z,28.70
2022-07-29T09:42:04.050Z,28.84
2022-07-29T09:44:42.936Z,28.76
2022-07-29T09:47:09.707Z,28.42
2022-07-29T09:49:50.818Z,28.89
2022-07-29T09:52:17.838Z,28.78
2022-07-29T09:54:45.839Z,28.96
2022-07-29T09:57:30.939Z,29.14
2022-07-29T10:00:03.881Z,29.12
2022-07-29T10:02:39.083Z,29.32
2022-07-29T10:05:17.121Z,29.18
2022-07-29T10:07:46.818Z,29.08
2022-07-29T10:10:26.750Z,29.28
2022-07-29T10:13:06.387Z,29.18
2022-07-29T10:15:44.306Z,29.46
2022-07-29T10:18:12.865Z,29.34
2022-07-29T10:20:40.239Z,29.53
2022-07-29T10:23:07.209Z,29.64
2022-07-29T10:25:34.100Z,29.87
2022-07-29T10:28:06.738Z,29.79
2022-07-29T10:30:34.492Z,29.11
2022-07-29T10:33:28.801Z,28.82
2022-07-29T10:36:18.690Z,29.17
2022-07-29T10:38:48.380Z,29.28
2022-07-29T10:41:44.391Z,29.25
2022-07-29T10:44:26.401Z,29.47
2022-07-29T10:46:54.579Z,29.41
2022-07-29T10:49:27.570Z,29.79
2022-07-29T10:52:07.085Z,29.77
2022-07-29T10:54:44.105Z,29.85
2022-07-29T10:57:54.151Z,29.75
2022-07-29T11:00:28.674Z,30.04
2022-07-29T11:03:01.661Z,29.96
2022-07-29T11:06:12.923Z,29.83
2022-07-29T11:08:40.865Z,29.74
2022-07-29T11:11:29.645Z,29.95
2022-07-29T11:13:57.256Z,30.23
2022-07-29T11:16:25.306Z,29.94
2022-07-29T11:19:14.184Z,30.31
2022-07-29T11:21:53.540Z,30.23
2022-07-29T11:24:30.158Z,30.14
2022-07-29T11:27:31.946Z,30.11
2022-07-29T11:30:03.383Z,30.20
2022-07-29T11:32:48.741Z,30.30
2022-07-29T11:35:36.986Z,30.47
2022-07-29T11:38:23.561Z,30.40
2022-07-29T11:41:23.936Z,30.16
2022-07-29T11:43:59.207Z,30.13
2022-07-29T11:47:01.600Z,30.10
2022-07-29T11:49:31.933Z,30.07
2022-07-29T11:52:06.147Z,29.86
2022-07-29T11:54:57.841Z,29.76
2022-07-29T11:57:36.698Z,29.68
2022-07-29T12:00:12.048Z,29.55
2022-07-29T12:02:48.152Z,29.85
2022-07-29T12:08:14.602Z,29.75
2022-07-29T12:10:42.968Z,29.77
2022-07-29T12:13:11.243Z,29.92
2022-07-29T12:15:47.221Z,29.56
2022-07-29T12:18:19.712Z,29.64
2022-07-29T12:21:06.834Z,29.62
2022-07-29T12:23:34.359Z,29.80
2022-07-29T12:26:07.547Z,29.96
2022-07-29T12:28:40.835Z,29.47
2022-07-29T12:31:15.083Z,29.81
2022-07-29T12:34:06.506Z,29.96
2022-07-29T12:36:36.719Z,29.95
2022-07-29T12:39:04.961Z,29.58
2022-07-29T12:41:33.985Z,29.85
2022-07-29T12:44:00.622Z,30.08
2022-07-29T12:46:27.739Z,30.36
2022-07-29T12:48:56.142Z,30.36
2022-07-29T12:51:33.827Z,30.20
2022-07-29T12:54:06.635Z,30.09
2022-07-29T12:56:42.616Z,30.28
2022-07-29T12:59:20.099Z,30.15
2022-07-29T13:01:50.195Z,30.20
2022-07-29T13:04:33.795Z,30.03
2022-07-29T13:07:04.396Z,30.05
2022-07-29T13:10:22.114Z,29.75
2022-07-29T13:13:11.621Z,29.67
2022-07-29T13:15:43.799Z,29.57
2022-07-29T13:18:29.375Z,29.19
2022-07-29T13:20:56.612Z,29.68
2022-07-29T13:23:23.633Z,29.67
2022-07-29T13:25:51.670Z,30.00
2022-07-29T13:28:18.958Z,29.62
2022-07-29T13:30:46.024Z,29.89
2022-07-29T13:33:13.905Z,30.06
2022-07-29T13:35:40.721Z,30.05
2022-07-29T13:38:08.522Z,29.74
2022-07-29T13:40:36.887Z,29.74
2022-07-29T13:43:04.821Z,29.73
2022-07-29T13:45:31.520Z,29.49
2022-07-29T13:47:58.227Z,29.40
2022-07-29T13:50:27.183Z,29.46
2022-07-29T13:52:54.076Z,29.43
2022-07-29T13:55:20.841Z,29.10
2022-07-29T13:57:48.588Z,29.07
2022-07-29T14:00:22.064Z,29.10
2022-07-29T14:02:48.772Z,29.10
2022-07-29T14:05:15.571Z,28.94
2022-07-29T14:07:42.234Z,28.94
2022-07-29T14:10:09.653Z,28.98
2022-07-29T14:12:36.337Z,29.10
2022-07-29T14:15:03.658Z,29.32
2022-07-29T14:17:30.369Z,29.33
2022-07-29T14:19:59.535Z,29.05
2022-07-29T14:22:26.353Z,29.13
2022-07-29T14:24:53.594Z,29.18
2022-07-29T14:27:20.389Z,29.22
2022-07-29T14:30:05.238Z,29.22
2022-07-29T14:32:32.463Z,28.91
2022-07-29T14:34:59.092Z,28.97
2022-07-29T14:37:25.761Z,28.68
2022-07-29T14:39:52.416Z,28.74
2022-07-29T14:42:19.049Z,28.62
2022-07-29T14:44:45.822Z,28.68
2022-07-29T14:47:13.691Z,28.40
2022-07-29T14:49:40.334Z,28.41
2022-07-29T14:52:07.099Z,28.41
2022-07-29T14:54:33.787Z,28.57
2022-07-29T14:57:00.492Z,28.45
2022-07-29T14:59:28.249Z,28.32
2022-07-29T15:01:56.774Z,28.29
2022-07-29T15:04:24.888Z,28.11
2022-07-29T15:06:51.593Z,28.05
2022-07-29T15:09:19.142Z,28.06
2022-07-29T15:11:45.764Z,27.85
2022-07-29T15:14:12.448Z,27.94
2022-07-29T15:16:43.875Z,28.12
2022-07-29T15:19:14.278Z,27.72
2022-07-29T15:21:48.081Z,27.84
2022-07-29T15:24:26.644Z,27.78
2022-07-29T15:26:53.564Z,27.70
2022-07-29T15:29:20.316Z,27.66
2022-07-29T15:31:47.153Z,27.60
2022-07-29T15:34:14.458Z,27.68
2022-07-29T15:36:52.911Z,27.71
2022-07-29T15:39:22.344Z,27.61
2022-07-29T15:41:49.577Z,27.62
2022-07-29T15:44:18.417Z,27.67
2022-07-29T15:47:03.882Z,27.61
2022-07-29T15:49:48.309Z,27.50
2022-07-29T15:52:26.225Z,27.56
2022-07-29T15:54:56.743Z,27.37
2022-07-29T15:57:27.868Z,27.06
2022-07-29T15:59:54.850Z,26.95
2022-07-29T16:02:21.627Z,26.78
2022-07-29T16:04:48.412Z,26.68
2022-07-29T16:07:15.585Z,26.36
2022-07-29T16:09:43.083Z,26.53
2022-07-29T16:12:14.976Z,26.54
2022-07-29T16:14:43.690Z,26.60
2022-07-29T16:17:14.520Z,26.57
2022-07-29T16:19:43.178Z,26.55
2022-07-29T16:22:10.493Z,26.42
2022-07-29T16:24:37.208Z,26.32
2022-07-29T16:27:03.998Z,26.38
2022-07-29T16:29:31.190Z,26.33
2022-07-29T16:31:58.010Z,26.22
2022-07-29T16:34:24.665Z,26.07
2022-07-29T16:36:51.290Z,25.94
2022-07-29T16:39:17.995Z,25.98
2022-07-29T16:41:45.770Z,25.76
2022-07-29T16:44:15.980Z,25.68
2022-07-29T16:46:44.907Z,25.65
2022-07-29T16:49:11.970Z,25.50
2022-07-29T16:51:43.925Z,25.39
2022-07-29T16:54:10.889Z,25.42
2022-07-29T16:56:37.806Z,25.33
2022-07-29T16:59:04.468Z,25.28
2022-07-29T17:01:31.194Z,25.28
2022-07-29T17:04:07.002Z,25.17
2022-07-29T17:06:38.704Z,25.10
2022-07-29T17:09:08.173Z,24.95
2022-07-29T17:11:53.623Z,24.96
2022-07-29T17:14:27.084Z,24.86
2022-07-29T17:17:01.360Z,24.93
2022-07-29T17:19:29.951Z,24.64
2022-07-29T17:22:04.708Z,24.37
2022-07-29T17:24:36.031Z,24.33
2022-07-29T17:27:02.833Z,24.30
2022-07-29T17:29:29.528Z,24.11
2022-07-29T17:31:57.823Z,24.14
2022-07-29T17:34:24.475Z,23.79
2022-07-29T17:36:51.142Z,23.87
2022-07-29T17:39:17.885Z,23.79
2022-07-29T17:41:47.072Z,23.52
2022-07-29T17:44:14.407Z,23.58
2022-07-29T17:46:41.505Z,23.42
2022-07-29T17:49:08.377Z,23.34
2022-07-29T17:51:35.208Z,23.15
2022-07-29T17:54:01.947Z,23.21
2022-07-29T17:56:30.902Z,23.16
2022-07-29T17:59:01.163Z,22.80
2022-07-29T18:01:31.776Z,22.66
2022-07-29T18:04:00.160Z,22.24
2022-07-29T18:06:27.057Z,22.44
2022-07-29T18:08:55.110Z,22.50
2022-07-29T18:11:23.868Z,22.42
2022-07-29T18:13:50.657Z,22.42
2022-07-29T18:16:18.228Z,22.37
2022-07-29T18:18:45.795Z,22.24
2022-07-29T18:21:15.130Z,22.28
2022-07-29T18:23:43.461Z,22.16
2022-07-29T18:26:13.141Z,22.18
2022-07-29T18:28:43.183Z,22.11
2022-07-29T18:31:10.126Z,21.88
2022-07-29T18:33:36.842Z,21.59
2022-07-29T18:36:10.835Z,21.66
2022-07-29T18:38:40.315Z,21.51
2022-07-29T18:41:09.640Z,21.28
2022-07-29T18:43:37.052Z,21.17
2022-07-29T18:46:06.369Z,21.02
2022-07-29T18:48:37.244Z,21.25
2022-07-29T18:51:09.114Z,21.16
2022-07-29T18:53:36.896Z,21.10
2022-07-29T18:56:05.580Z,21.09
2022-07-29T18:58:33.450Z,20.83
2022-07-29T19:01:01.973Z,20.91
2022-07-29T19:03:28.691Z,20.86
2022-07-29T19:05:55.541Z,20.55
2022-07-29T19:08:22.177Z,20.64
2022-07-29T19:10:48.922Z,20.59
2022-07-29T19:13:15.588Z,20.58
2022-07-29T19:15:46.389Z,20.63
2022-07-29T19:18:17.419Z,20.51
2022-07-29T19:20:44.227Z,20.21
2022-07-29T19:23:11.082Z,20.35
2022-07-29T19:25:53.790Z,20.30
2022-07-29T19:28:21.916Z,20.29
2022-07-29T19:30:50.253Z,20.14
2022-07-29T19:33:18.963Z,20.15
2022-07-29T19:35:47.616Z,20.19
2022-07-29T19:38:16.341Z,19.99
2022-07-29T19:40:44.115Z,19.94
2022-07-29T19:43:51.467Z,19.92
2022-07-29T19:46:04.518Z,19.80
2022-07-29T19:48:31.629Z,19.88
2022-07-29T19:50:58.393Z,19.86
2022-07-29T19:53:25.058Z,19.82
2022-07-29T19:55:51.862Z,19.80
2022-07-29T19:58:18.567Z,19.80
2022-07-29T20:00:49.261Z,19.74
2022-07-29T20:03:16.149Z,19.46
2022-07-29T20:05:43.419Z,19.22
2022-07-29T20:08:14.669Z,19.20
2022-07-29T20:10:41.327Z,19.02
2022-07-29T20:13:08.043Z,19.08
2022-07-29T20:15:34.980Z,18.93
2022-07-29T20:18:01.686Z,18.94
2022-07-29T20:20:30.008Z,19.00
2022-07-29T20:22:57.159Z,19.08
2022-07-29T20:25:24.212Z,19.11
2022-07-29T20:27:52.459Z,19.10
2022-07-29T20:30:22.221Z,18.94
2022-07-29T20:32:52.339Z,18.83
2022-07-29T20:35:25.893Z,18.81
2022-07-29T20:37:56.169Z,18.82
2022-07-29T20:40:26.989Z,18.87
2022-07-29T20:42:56.055Z,18.76
2022-07-29T20:45:25.372Z,18.67
2022-07-29T20:47:52.932Z,18.40
2022-07-29T20:50:23.944Z,18.47
2022-07-29T20:52:52.894Z,18.38
2022-07-29T20:55:20.183Z,18.30
2022-07-29T20:57:46.856Z,18.36
2022-07-29T21:00:16.458Z,18.41
2022-07-29T21:02:43.354Z,18.44
2022-07-29T21:05:10.764Z,18.52
2022-07-29T21:07:37.458Z,18.48
2022-07-29T21:10:04.748Z,18.46
2022-07-29T21:12:31.761Z,18.26
2022-07-29T21:14:58.452Z,18.15
2022-07-29T21:17:25.290Z,18.13
2022-07-29T21:19:53.324Z,18.12
2022-07-29T21:22:23.068Z,18.10
2022-07-29T21:24:50.369Z,17.95
2022-07-29T21:27:38.469Z,18.00
2022-07-29T21:30:07.802Z,18.05
2022-07-29T21:32:34.666Z,18.01
2022-07-29T21:35:01.461Z,17.91
2022-07-29T21:37:28.498Z,17.79
2022-07-29T21:39:55.226Z,17.78
2022-07-29T21:42:21.952Z,17.72
2022-07-29T21:44:48.862Z,17.70
2022-07-29T21:47:15.552Z,17.57
2022-07-29T21:49:42.764Z,17.34
2022-07-29T21:52:11.842Z,17.40
2022-07-29T21:54:39.617Z,17.41
2022-07-29T21:57:07.163Z,17.42
2022-07-29T21:59:34.438Z,17.28
2022-07-29T22:02:01.326Z,17.35
2022-07-29T22:04:29.282Z,17.32
2022-07-29T22:06:56.764Z,17.19
2022-07-29T22:09:24.139Z,17.16
2022-07-29T22:11:51.235Z,17.15
2022-07-29T22:14:18.682Z,17.23
2022-07-29T22:16:46.535Z,17.11
2022-07-29T22:19:14.325Z,17.05
2022-07-29T22:21:41.484Z,17.09
2022-07-29T22:24:09.901Z,17.02
2022-07-29T22:26:36.651Z,17.00
2022-07-29T22:29:03.331Z,16.93
2022-07-29T22:31:30.126Z,16.98
2022-07-29T22:33:56.757Z,17.02
2022-07-29T22:36:26.003Z,16.90
2022-07-29T22:38:52.660Z,16.92
2022-07-29T22:41:19.352Z,16.90
2022-07-29T22:43:46.089Z,16.83
2022-07-29T22:46:12.880Z,16.71
2022-07-29T22:48:39.655Z,16.70
2022-07-29T22:51:06.731Z,16.70
2022-07-29T22:53:33.397Z,16.61
2022-07-29T22:56:00.049Z,16.76
2022-07-29T22:58:26.807Z,16.74
2022-07-29T23:00:53.997Z,16.47
2022-07-29T23:03:23.114Z,16.52
2022-07-29T23:05:51.706Z,16.45
2022-07-29T23:08:19.594Z,16.38
2022-07-29T23:10:46.715Z,16.47
2022-07-29T23:13:14.205Z,16.37
2022-07-29T23:15:41.342Z,16.42
2022-07-29T23:18:08.172Z,16.43
2022-07-29T23:20:35.511Z,16.29
2022-07-29T23:23:02.247Z,16.16
2022-07-29T23:25:28.954Z,16.22
2022-07-29T23:27:55.760Z,16.34
2022-07-29T23:30:22.590Z,16.45
2022-07-29T23:32:49.342Z,16.36
2022-07-29T23:35:16.107Z,16.49
2022-07-29T23:37:42.810Z,16.48
2022-07-29T23:40:14.434Z,16.40
2022-07-29T23:42:42.809Z,16.27
2022-07-29T23:45:11.083Z,15.90
2022-07-29T23:47:37.905Z,16.03
2022-07-29T23:50:06.468Z,16.08
2022-07-29T23:52:33.221Z,16.04
2022-07-29T23:55:37.014Z,16.16
2022-07-29T23:57:49.291Z,16.12
